Aérodrome :
LOGIN :

S'inscrire | Disclaimer

   EN    FR    IT 

 










Légende :    VFR   VFR Marginal   IFR   IFR Intensif   IFR Très Intensif
Visi : 
Plafond : 
>= 8 km
>= 3000ft
5 à 8 km
1000 à 3000 ft
1500m à 5 km
500 à 1000 ft
800 à 1500m
200 à 500 ft
< 800m
< 200 ft
Symboles :   Orages  Brouillard  Fortes neiges  Fortes précipitations  Vent > 20 kt
SIGMETs :   Divers  Orages  Givrage  Turbulence  Onde Orograph.  Cendres Volcan.







- Altitude de l'aérodrome : 7 ft
- Code IATA : VCE


LIPZ - Marco Polo Int. Venezia

DERNIER METAR :
  • 240420Z 01005KT 330V040 CAVOK 18/16 Q1017 NOSIG

METARs EXPIRÉS :
  • 240350Z 36005KT CAVOK 18/16 Q1017 NOSIG
  • 240320Z 36006KT CAVOK 18/16 Q1017 NOSIG
  • 240250Z 36005KT 320V020 CAVOK 18/16 Q1017 NOSIG
  • 240220Z VRB01KT CAVOK 19/16 Q1016 NOSIG

TAF TAF LIPZ
Valide du 24 à 00h jusqu'au 25 à 06h UTC


232300Z 2400/2506 VRB05KT 9999 FEW030
BECMG 2410/2412 16010KT
BECMG 2418/2420 03007KT
Pas de NOTAMs connus pour ce terrain.



MET'MAP, la Météo Aéronautique d'un coup d'oeil ! - Copyright ORBIFLY Décembre 2007 - Disclaimer

ORBIFLY MET'MAP TEAM :

Programmation & Développement : Alexandra Zaïnal
Conception & Développement : Baudouin d'Aumeries
Co-Programmation & Développement : Marc-Olivier Méhu
Soutien technique & logistique : Manuel Goepfert

Contact : metmap@orbifly.com




SOURCES & CREDITS :

   NOAA